Time;durP1;ratioP1;P1;durP2;ratioP2;P2;SDS_P1;SDS_P2;PMS_P1;PMS_P2;Temp;Humidity;BMP_temperature;BMP_pressure;BME280_temperature;BME280_humidity;BME280_pressure;Samples;Min_cycle;Max_cycle;Signal;HPM_P1;HPM_P2
2021/05/19 00:00:42;;;;;;;6.23;5.37;;;;;;;13.09;60.66;100221.72;5033622;28;20478;-73
2021/05/19 00:03:08;;;;;;;7.00;5.40;;;;;;;13.05;60.51;100216.81;5037396;28;20438;-74
2021/05/19 00:05:35;;;;;;;7.20;6.30;;;;;;;13.00;60.29;100219.97;5037094;28;20486;-75
2021/05/19 00:08:01;;;;;;;6.53;5.93;;;;;;;13.03;60.35;100221.50;5037149;28;20492;-73
2021/05/19 00:10:28;;;;;;;7.47;6.40;;;;;;;13.06;60.09;100219.34;5044493;28;20508;-74
2021/05/19 00:12:54;;;;;;;7.60;6.50;;;;;;;13.10;59.91;100217.19;5035042;28;20484;-74
2021/05/19 00:15:20;;;;;;;8.50;7.47;;;;;;;12.80;60.70;100216.66;5030694;28;20453;-74
2021/05/19 00:17:47;;;;;;;8.10;6.63;;;;;;;12.74;61.01;100220.81;5044920;28;20974;-75
2021/05/19 00:20:16;;;;;;;11.53;7.53;;;;;;;12.86;60.82;100210.63;5029486;28;20458;-74
2021/05/19 00:22:42;;;;;;;8.60;7.17;;;;;;;12.90;60.98;100221.94;5035917;28;20453;-74
2021/05/19 00:25:09;;;;;;;9.07;8.17;;;;;;;12.69;61.55;100216.88;5043785;28;20450;-75
2021/05/19 00:27:36;;;;;;;8.97;7.47;;;;;;;12.86;60.94;100212.50;5030637;28;20495;-74
2021/05/19 00:30:04;;;;;;;9.20;7.77;;;;;;;12.67;61.51;100213.50;5034121;28;20972;-75
2021/05/19 00:32:30;;;;;;;9.23;8.20;;;;;;;12.56;62.13;100228.84;5025972;28;20490;-75
2021/05/19 00:34:56;;;;;;;10.60;9.50;;;;;;;12.91;61.23;100224.44;5040436;28;20497;-74
2021/05/19 00:37:22;;;;;;;9.13;7.80;;;;;;;12.86;61.16;100215.16;5037061;28;20501;-74
2021/05/19 00:39:48;;;;;;;11.80;9.43;;;;;;;12.89;61.16;100222.91;5036247;28;20524;-72
2021/05/19 00:42:15;;;;;;;11.07;9.27;;;;;;;12.81;61.31;100229.03;5032718;28;20545;-74
2021/05/19 00:44:42;;;;;;;10.73;9.60;;;;;;;12.68;61.76;100232.13;5025659;28;20434;-74
2021/05/19 00:47:09;;;;;;;11.50;8.57;;;;;;;12.76;61.69;100226.00;5032607;28;20601;-73
2021/05/19 00:49:35;;;;;;;10.20;9.10;;;;;;;12.57;62.30;100230.53;5038770;28;20496;-73
2021/05/19 00:52:01;;;;;;;11.23;10.10;;;;;;;12.55;62.36;100224.50;5043373;28;20528;-74
2021/05/19 00:54:28;;;;;;;12.27;10.23;;;;;;;12.69;61.95;100231.16;5040058;28;20497;-74
2021/05/19 00:56:54;;;;;;;10.33;9.33;;;;;;;12.66;62.14;100222.56;5039965;28;20496;-74
2021/05/19 00:59:20;;;;;;;11.07;9.43;;;;;;;12.61;62.02;100225.72;5036344;28;20494;-74
2021/05/19 01:01:47;;;;;;;11.57;10.37;;;;;;;12.32;62.68;100224.09;5036489;28;20516;-73
2021/05/19 01:04:13;;;;;;;12.90;10.60;;;;;;;12.40;62.81;100216.13;5035455;28;20486;-75
2021/05/19 01:06:45;;;;;;;13.47;11.07;;;;;;;12.50;62.39;100220.56;5038460;28;20510;-74
2021/05/19 01:11:56;;;;;;;11.87;10.43;;;;;;;12.40;62.51;100218.81;5035005;28;20484;-74
2021/05/19 01:14:22;;;;;;;13.70;11.57;;;;;;;12.24;62.82;100216.81;5041089;28;20470;-73
2021/05/19 01:16:49;;;;;;;17.13;11.77;;;;;;;12.21;63.17;100217.13;5030507;28;21030;-75
2021/05/19 01:19:15;;;;;;;12.27;10.73;;;;;;;12.26;62.90;100216.69;5028333;28;20439;-75
2021/05/19 01:21:43;;;;;;;12.67;10.97;;;;;;;12.14;62.95;100218.72;5038503;28;20498;-74
2021/05/19 01:24:10;;;;;;;12.50;10.83;;;;;;;12.11;63.08;100213.66;5042256;28;20456;-75
2021/05/19 01:26:36;;;;;;;12.37;11.17;;;;;;;12.14;62.99;100225.94;5034453;28;20562;-75
2021/05/19 01:29:03;;;;;;;12.23;10.93;;;;;;;12.07;62.82;100223.00;5036546;28;20509;-75
2021/05/19 01:31:29;;;;;;;12.83;11.13;;;;;;;11.93;63.45;100223.53;5033115;28;20505;-74
2021/05/19 01:33:55;;;;;;;15.20;12.07;;;;;;;11.90;63.51;100221.13;5038199;28;20488;-74
2021/05/19 01:36:21;;;;;;;14.03;12.60;;;;;;;11.86;63.74;100229.44;5033485;28;20541;-73
2021/05/19 01:38:48;;;;;;;13.53;12.20;;;;;;;11.79;63.83;100222.16;5042718;28;20450;-75
2021/05/19 01:41:14;;;;;;;14.93;12.87;;;;;;;11.76;63.86;100222.47;5034569;28;20541;-74
2021/05/19 01:43:41;;;;;;;14.40;12.17;;;;;;;11.71;63.99;100217.53;5031876;28;20486;-75
2021/05/19 01:46:07;;;;;;;16.00;13.50;;;;;;;11.64;64.14;100211.09;5030627;28;20486;-74
2021/05/19 01:48:34;;;;;;;13.57;12.03;;;;;;;11.59;64.22;100206.16;5035266;28;20486;-75
2021/05/19 01:51:01;;;;;;;13.50;12.10;;;;;;;11.60;63.96;100215.06;5028481;28;21009;-75
2021/05/19 01:53:28;;;;;;;16.50;13.17;;;;;;;11.55;63.93;100212.00;5025766;28;20496;-75
2021/05/19 01:55:55;;;;;;;14.07;12.50;;;;;;;11.53;64.11;100220.16;5028739;28;20496;-75
2021/05/19 01:58:22;;;;;;;17.03;13.03;;;;;;;11.65;63.60;100223.50;5034305;28;20507;-73
2021/05/19 02:00:48;;;;;;;13.33;11.47;;;;;;;11.63;63.46;100217.44;5027291;28;20533;-73
2021/05/19 02:03:14;;;;;;;14.07;12.57;;;;;;;11.31;64.46;100232.06;5028114;28;21001;-74
2021/05/19 02:05:41;;;;;;;16.73;14.50;;;;;;;11.02;65.27;100222.28;5033462;28;20501;-75
2021/05/19 02:08:08;;;;;;;17.77;15.10;;;;;;;10.82;66.20;100221.50;5037042;28;20486;-75
2021/05/19 02:10:36;;;;;;;16.73;13.57;;;;;;;11.05;65.46;100223.84;5040119;28;20515;-74
2021/05/19 02:13:04;;;;;;;17.30;13.63;;;;;;;11.06;65.32;100229.06;5032195;28;21137;-74
2021/05/19 02:15:31;;;;;;;20.50;14.60;;;;;;;11.25;64.53;100227.31;5038936;28;20509;-74
2021/05/19 02:17:58;;;;;;;18.53;14.57;;;;;;;11.24;64.05;100234.50;5024576;28;20454;-75
2021/05/19 02:20:25;;;;;;;15.63;13.10;;;;;;;11.21;64.08;100232.09;5031412;28;20510;-74
2021/05/19 02:22:51;;;;;;;19.27;14.40;;;;;;;11.20;64.19;100226.91;5038775;28;20469;-74
2021/05/19 02:25:20;;;;;;;17.13;15.33;;;;;;;11.01;65.02;100231.31;5035136;28;20493;-74
2021/05/19 02:27:47;;;;;;;16.83;14.53;;;;;;;11.00;65.62;100236.81;5039647;28;20486;-74
2021/05/19 02:30:15;;;;;;;21.80;16.17;;;;;;;11.04;65.43;100235.53;5023221;28;21106;-74
2021/05/19 02:32:43;;;;;;;18.57;15.90;;;;;;;11.13;64.82;100240.03;5023680;28;20513;-74
2021/05/19 02:35:10;;;;;;;21.77;15.60;;;;;;;11.12;64.68;100235.66;5030405;28;21050;-73
2021/05/19 02:37:36;;;;;;;18.87;14.50;;;;;;;11.21;64.64;100233.94;5031664;28;20465;-73
2021/05/19 02:40:05;;;;;;;18.67;15.87;;;;;;;11.06;65.08;100229.06;5032168;28;20541;-73
2021/05/19 02:42:32;;;;;;;22.83;15.30;;;;;;;10.90;65.80;100228.78;5038860;28;20470;-74
2021/05/19 02:44:58;;;;;;;19.43;15.10;;;;;;;11.00;65.19;100229.63;5038948;28;20474;-74
2021/05/19 02:47:24;;;;;;;18.17;15.87;;;;;;;11.01;65.21;100239.34;5030432;28;20566;-75
2021/05/19 02:49:51;;;;;;;17.90;14.60;;;;;;;11.00;64.87;100228.78;5034394;28;20594;-74
2021/05/19 02:52:17;;;;;;;17.40;14.73;;;;;;;10.97;64.96;100232.59;5031328;28;20508;-73
2021/05/19 02:54:43;;;;;;;18.97;15.07;;;;;;;11.00;65.42;100226.94;5034118;28;20551;-74
2021/05/19 02:57:10;;;;;;;17.30;14.60;;;;;;;11.03;64.94;100229.34;5041050;28;20525;-75
2021/05/19 02:59:36;;;;;;;17.73;14.50;;;;;;;10.99;64.99;100227.94;5027030;28;20507;-73
2021/05/19 03:02:03;;;;;;;17.93;15.47;;;;;;;10.86;65.26;100228.22;5038110;28;20510;-73
2021/05/19 03:04:29;;;;;;;16.37;13.80;;;;;;;10.85;64.99;100223.03;5030888;28;20503;-74
2021/05/19 03:06:56;;;;;;;16.53;13.90;;;;;;;10.83;65.19;100233.03;5030914;28;20540;-75
2021/05/19 03:09:22;;;;;;;16.43;13.67;;;;;;;10.87;64.93;100229.09;5036916;28;20501;-75
2021/05/19 03:11:48;;;;;;;17.53;14.10;;;;;;;10.88;65.01;100220.06;5029299;28;20517;-75
2021/05/19 03:14:15;;;;;;;16.57;14.03;;;;;;;10.81;65.33;100217.13;5030617;28;20478;-74
2021/05/19 03:16:41;;;;;;;17.87;14.27;;;;;;;10.89;65.17;100224.44;5037533;28;20504;-74
2021/05/19 03:19:08;;;;;;;19.23;15.47;;;;;;;10.89;65.05;100224.44;5031629;28;20510;-75
2021/05/19 03:21:34;;;;;;;16.43;14.40;;;;;;;10.93;64.68;100212.44;5030677;28;20506;-75
2021/05/19 03:24:01;;;;;;;16.27;12.90;;;;;;;10.77;64.77;100220.25;5040092;28;20915;-75
2021/05/19 03:26:27;;;;;;;15.40;13.73;;;;;;;10.64;64.59;100221.38;5032774;28;20548;-74
2021/05/19 03:28:53;;;;;;;16.80;13.43;;;;;;;10.47;65.37;100217.56;5041955;28;20573;-74
2021/05/19 03:31:20;;;;;;;15.47;11.73;;;;;;;10.50;64.54;100230.66;5040992;28;21029;-74
2021/05/19 03:33:46;;;;;;;12.93;11.60;;;;;;;10.55;64.15;100228.41;5032931;28;20536;-73
2021/05/19 03:36:12;;;;;;;16.50;12.50;;;;;;;10.63;63.95;100230.38;5028758;28;20507;-74
2021/05/19 03:38:38;;;;;;;16.90;13.37;;;;;;;10.71;64.05;100241.22;5047172;28;20461;-74
2021/05/19 03:41:07;;;;;;;17.80;14.37;;;;;;;10.87;63.39;100231.78;5037703;28;20537;-73
2021/05/19 03:43:33;;;;;;;15.53;13.73;;;;;;;10.86;62.88;100236.25;5038906;28;20457;-74
2021/05/19 03:46:00;;;;;;;16.40;13.23;;;;;;;10.99;63.61;100237.78;5028611;28;20562;-74
2021/05/19 03:48:26;;;;;;;20.10;15.77;;;;;;;11.49;64.55;100235.69;5035464;28;20917;-75
2021/05/19 03:50:52;;;;;;;20.63;15.50;;;;;;;12.34;62.10;100230.16;5044540;28;20488;-75
2021/05/19 03:53:18;;;;;;;17.00;14.57;;;;;;;12.95;59.03;100225.81;5048473;28;20479;-74
2021/05/19 03:55:45;;;;;;;16.63;14.10;;;;;;;13.57;57.01;100240.97;5039484;28;20512;-74
2021/05/19 03:58:13;;;;;;;12.57;11.27;;;;;;;13.72;55.73;100239.38;5038948;28;20477;-74
2021/05/19 04:00:39;;;;;;;13.50;10.60;;;;;;;14.26;53.81;100246.28;5036578;28;20493;-75
2021/05/19 04:03:06;;;;;;;10.80;9.17;;;;;;;15.42;50.99;100242.59;5045005;28;20513;-74
2021/05/19 04:05:35;;;;;;;10.50;9.20;;;;;;;15.80;49.02;100243.66;5042956;28;20488;-74
2021/05/19 04:08:02;;;;;;;11.00;9.30;;;;;;;15.44;49.33;100241.38;5031960;28;20467;-74
2021/05/19 04:10:28;;;;;;;11.90;10.63;;;;;;;16.38;47.91;100257.69;5047708;28;20970;-74
2021/05/19 04:12:54;;;;;;;11.53;10.30;;;;;;;16.86;46.69;100254.00;5034210;28;20465;-73
2021/05/19 04:15:23;;;;;;;11.20;10.10;;;;;;;16.76;46.51;100254.22;5029721;28;21022;-74
2021/05/19 04:17:49;;;;;;;10.87;9.77;;;;;;;17.15;45.33;100258.66;5042825;28;20501;-73
2021/05/19 04:20:16;;;;;;;12.23;10.97;;;;;;;17.76;44.62;100265.75;5044460;28;20457;-74
2021/05/19 04:22:43;;;;;;;12.40;11.10;;;;;;;17.96;44.36;100275.00;5051359;28;20795;-73
2021/05/19 04:25:09;;;;;;;13.00;11.30;;;;;;;18.63;43.05;100273.09;5038666;28;20488;-74
2021/05/19 04:27:36;;;;;;;14.10;12.30;;;;;;;17.76;44.71;100273.88;5030443;28;20503;-73
2021/05/19 04:30:03;;;;;;;14.50;13.10;;;;;;;17.42;46.01;100272.56;5040972;28;20505;-75
2021/05/19 04:32:29;;;;;;;16.10;13.93;;;;;;;15.53;52.03;100273.72;5027351;28;20542;-74
2021/05/19 04:34:56;;;;;;;16.47;14.77;;;;;;;15.92;51.03;100271.09;5041407;28;21124;-74
2021/05/19 04:37:22;;;;;;;16.77;15.03;;;;;;;16.45;49.89;100283.97;5034477;28;20504;-71
2021/05/19 04:39:48;;;;;;;22.10;15.80;;;;;;;16.51;49.23;100289.50;5038846;28;20523;-72
2021/05/19 04:42:15;;;;;;;22.60;14.50;;;;;;;15.48;52.38;100284.16;5046684;28;20513;-71
2021/05/19 04:44:41;;;;;;;19.20;17.20;;;;;;;15.88;51.86;100288.59;5045961;28;20516;-70
2021/05/19 04:47:07;;;;;;;16.87;15.07;;;;;;;17.50;47.52;100286.84;5044569;28;21084;-72
2021/05/19 04:49:34;;;;;;;16.07;14.40;;;;;;;15.69;51.26;100289.00;5044734;28;20994;-72
2021/05/19 04:52:00;;;;;;;17.60;15.80;;;;;;;15.69;51.41;100286.28;5031102;28;20504;-72
2021/05/19 04:54:26;;;;;;;18.03;15.97;;;;;;;14.92;54.42;100292.97;5040062;28;20505;-72
2021/05/19 04:56:53;;;;;;;21.77;15.70;;;;;;;15.35;53.01;100296.31;5026038;28;20513;-72
2021/05/19 04:59:19;;;;;;;18.37;16.33;;;;;;;14.98;54.33;100303.06;5043124;28;20454;-74
2021/05/19 05:01:45;;;;;;;19.20;15.60;;;;;;;14.56;55.25;100300.47;5031198;28;20569;-73
2021/05/19 05:04:11;;;;;;;17.73;15.60;;;;;;;14.84;54.47;100304.59;5036088;28;20528;-73
2021/05/19 05:06:38;;;;;;;17.97;15.10;;;;;;;14.87;54.54;100309.59;5040911;28;20517;-74
2021/05/19 05:09:05;;;;;;;17.80;15.43;;;;;;;15.06;54.30;100299.53;5037707;28;21044;-74
2021/05/19 05:11:31;;;;;;;18.80;15.50;;;;;;;14.81;55.51;100304.06;5042198;28;20482;-72
2021/05/19 05:13:57;;;;;;;17.60;15.80;;;;;;;14.64;55.31;100309.41;5039124;28;20482;-72
2021/05/19 05:16:23;;;;;;;22.47;17.07;;;;;;;13.75;58.72;100308.91;5022597;28;20680;-72
2021/05/19 05:18:49;;;;;;;21.70;17.00;;;;;;;13.85;59.10;100316.00;5032403;28;20533;-72
2021/05/19 05:21:15;;;;;;;21.10;17.93;;;;;;;15.11;55.60;100310.63;5036766;28;20541;-73
2021/05/19 05:23:42;;;;;;;18.83;16.83;;;;;;;15.08;55.04;100310.97;5035619;28;20543;-73
2021/05/19 05:26:08;;;;;;;19.30;15.40;;;;;;;14.79;56.23;100323.06;5033019;28;20646;-73
2021/05/19 05:28:35;;;;;;;19.17;16.03;;;;;;;14.62;56.73;100316.81;5025381;28;20549;-72
2021/05/19 05:31:01;;;;;;;18.10;16.03;;;;;;;14.61;56.51;100315.13;5030444;28;20593;-73
2021/05/19 05:33:27;;;;;;;18.50;15.47;;;;;;;14.44;57.34;100321.44;5032403;28;20506;-74
2021/05/19 05:35:53;;;;;;;20.27;16.20;;;;;;;14.88;56.56;100326.63;5030215;28;21337;-73
2021/05/19 05:38:19;;;;;;;19.37;15.37;;;;;;;15.53;54.45;100323.03;5035821;28;20504;-73
2021/05/19 05:40:46;;;;;;;18.47;15.60;;;;;;;15.78;52.76;100318.47;5039788;28;21018;-73
2021/05/19 05:43:13;;;;;;;17.60;15.33;;;;;;;16.42;50.98;100314.81;5036112;28;20573;-73
2021/05/19 05:45:39;;;;;;;16.97;14.43;;;;;;;16.89;49.82;100324.69;5033346;28;20482;-73
2021/05/19 05:48:05;;;;;;;19.20;14.47;;;;;;;18.40;46.06;100324.66;5032030;28;20477;-73
2021/05/19 05:50:31;;;;;;;17.40;12.17;;;;;;;21.31;39.56;100327.75;5033810;28;20498;-73
2021/05/19 05:52:57;;;;;;;13.93;12.33;;;;;;;20.75;40.26;100328.09;5030395;28;20460;-74
2021/05/19 05:55:23;;;;;;;13.50;12.10;;;;;;;21.73;38.52;100331.06;5043253;28;20454;-74
2021/05/19 05:57:51;;;;;;;14.33;10.73;;;;;;;24.20;33.98;100321.28;5040472;28;20513;-72
2021/05/19 06:00:19;;;;;;;12.00;10.77;;;;;;;22.34;36.29;100339.94;5038919;28;20505;-72
2021/05/19 06:02:45;;;;;;;13.20;11.37;;;;;;;19.57;41.77;100334.38;5042390;28;20446;-71
2021/05/19 06:05:12;;;;;;;13.20;11.47;;;;;;;18.56;44.41;100338.00;5042105;28;20477;-71
2021/05/19 06:07:39;;;;;;;12.57;11.27;;;;;;;18.10;46.61;100340.94;5039831;28;20485;-72
2021/05/19 06:10:07;;;;;;;11.90;10.57;;;;;;;18.99;44.79;100338.06;5041447;28;20975;-80
2021/05/19 06:12:33;;;;;;;12.20;10.90;;;;;;;18.63;44.33;100335.38;5041519;28;20520;-74
2021/05/19 06:15:00;;;;;;;14.73;11.90;;;;;;;18.44;45.96;100332.22;5041772;28;21029;-69
2021/05/19 06:17:26;;;;;;;11.53;10.33;;;;;;;19.91;42.78;100330.03;5041382;28;20553;-69
2021/05/19 06:19:53;;;;;;;11.93;10.67;;;;;;;20.82;40.95;100339.81;5039702;28;20446;-68
2021/05/19 06:22:19;;;;;;;13.93;10.60;;;;;;;20.23;42.12;100333.94;5041672;28;20569;-68
2021/05/19 06:24:46;;;;;;;13.27;11.90;;;;;;;19.25;44.50;100333.94;5042192;28;20446;-68
2021/05/19 06:27:13;;;;;;;13.60;12.10;;;;;;;18.85;45.76;100346.25;5040859;28;20494;-71
2021/05/19 06:29:39;;;;;;;13.37;11.00;;;;;;;18.26;46.82;100342.63;5042580;28;20541;-76
2021/05/19 06:32:07;;;;;;;11.33;9.30;;;;;;;18.28;46.73;100337.88;5041832;28;20500;-75
2021/05/19 06:34:33;;;;;;;12.43;9.20;;;;;;;18.49;45.96;100342.50;5041615;28;20494;-78
2021/05/19 06:36:59;;;;;;;13.00;9.60;;;;;;;19.30;44.56;100336.03;5041409;28;20770;-72
2021/05/19 06:39:25;;;;;;;11.53;9.67;;;;;;;19.67;43.35;100331.28;5040887;28;20481;-74
2021/05/19 06:41:51;;;;;;;10.30;9.20;;;;;;;20.06;42.11;100341.59;5037367;28;20481;-78
2021/05/19 06:44:18;;;;;;;10.33;9.30;;;;;;;20.97;40.16;100340.50;5035986;28;20824;-78
2021/05/19 06:46:45;;;;;;;10.73;9.57;;;;;;;19.78;42.20;100336.22;5041375;28;20576;-69
2021/05/19 06:49:12;;;;;;;10.93;9.73;;;;;;;20.94;40.70;100343.63;5040840;28;20490;-78
2021/05/19 06:51:41;;;;;;;11.53;10.10;;;;;;;21.33;40.03;100347.41;5039830;28;20469;-76
2021/05/19 06:54:07;;;;;;;11.90;9.17;;;;;;;23.51;34.73;100353.28;5040924;28;20482;-73
2021/05/19 06:56:34;;;;;;;11.57;9.10;;;;;;;25.45;31.26;100342.66;5040364;28;21002;-74
2021/05/19 06:59:00;;;;;;;10.10;9.20;;;;;;;26.84;29.10;100344.59;5041436;28;20453;-74
2021/05/19 07:01:27;;;;;;;10.33;9.20;;;;;;;26.26;30.26;100340.94;5040672;28;20865;-73
2021/05/19 07:03:53;;;;;;;14.00;8.30;;;;;;;27.14;28.49;100351.69;5040964;28;20488;-72
2021/05/19 07:06:21;;;;;;;11.40;8.70;;;;;;;25.83;30.97;100346.81;5040749;28;20543;-75
2021/05/19 07:08:47;;;;;;;12.30;8.77;;;;;;;23.09;35.24;100351.09;5040313;28;20505;-74
2021/05/19 07:11:14;;;;;;;12.43;9.10;;;;;;;22.17;36.54;100343.13;5041063;28;20486;-79
2021/05/19 07:13:40;;;;;;;11.13;9.40;;;;;;;22.31;36.78;100340.38;5040414;28;20462;-73
2021/05/19 07:16:07;;;;;;;11.70;10.60;;;;;;;21.99;38.61;100340.22;5041018;28;20481;-71
2021/05/19 07:18:33;;;;;;;10.90;9.80;;;;;;;19.32;42.07;100339.38;5041527;28;20446;-74
2021/05/19 07:20:59;;;;;;;10.13;9.13;;;;;;;17.45;46.91;100343.31;5038363;28;20481;-69
2021/05/19 07:23:27;;;;;;;11.10;10.00;;;;;;;17.40;47.50;100342.19;5041146;28;20503;-68
2021/05/19 07:25:53;;;;;;;12.30;10.83;;;;;;;17.27;48.54;100346.34;5040353;28;20480;-73
2021/05/19 07:28:19;;;;;;;13.23;11.63;;;;;;;17.21;48.52;100355.16;5040316;28;20457;-74
2021/05/19 07:30:47;;;;;;;11.87;10.33;;;;;;;17.31;49.23;100350.34;5040878;28;20473;-78
2021/05/19 07:33:14;;;;;;;12.00;10.63;;;;;;;17.63;48.71;100352.94;5040793;28;20537;-82
2021/05/19 07:35:41;;;;;;;13.80;11.83;;;;;;;17.83;47.64;100355.97;5039959;28;20820;-74
2021/05/19 07:38:07;;;;;;;12.23;10.90;;;;;;;17.86;47.63;100361.00;5039989;28;20465;-81
2021/05/19 07:40:35;;;;;;;15.80;13.20;;;;;;;17.80;47.25;100351.75;5040155;28;21037;-73
2021/05/19 07:43:01;;;;;;;14.20;12.20;;;;;;;18.79;46.08;100358.66;5039879;28;20450;-73
2021/05/19 07:45:27;;;;;;;17.13;12.17;;;;;;;20.42;42.24;100355.97;5040370;28;20528;-74
2021/05/19 07:47:54;;;;;;;15.17;13.23;;;;;;;19.52;43.32;100350.41;5040949;28;20822;-70
2021/05/19 07:50:20;;;;;;;16.40;14.23;;;;;;;18.85;44.74;100357.06;5039875;28;20489;-70
2021/05/19 07:52:47;;;;;;;15.93;13.70;;;;;;;20.08;42.49;100349.53;5041263;28;20446;-70
2021/05/19 07:55:18;;;;;;;15.93;14.17;;;;;;;19.72;43.26;100353.25;5040145;28;20442;-71
2021/05/19 07:57:49;;;;;;;15.53;13.07;;;;;;;19.62;43.46;100355.50;5039673;28;20507;-74
2021/05/19 08:00:22;;;;;;;15.03;13.50;;;;;;;19.55;42.93;100353.56;5040128;28;20477;-73
2021/05/19 08:02:48;;;;;;;16.67;14.97;;;;;;;19.62;43.24;100359.03;5041273;28;20442;-80
2021/05/19 08:05:15;;;;;;;17.10;15.30;;;;;;;20.64;41.23;100352.13;5042180;28;20457;-75
2021/05/19 08:07:41;;;;;;;17.27;15.47;;;;;;;20.71;40.74;100354.00;5043902;28;20457;-73
2021/05/19 08:10:08;;;;;;;18.23;16.33;;;;;;;20.98;40.93;100355.72;5043555;28;20480;-76
2021/05/19 08:12:34;;;;;;;18.13;16.50;;;;;;;21.99;38.82;100356.56;5043881;28;20974;-75
2021/05/19 08:15:01;;;;;;;19.77;17.50;;;;;;;20.00;42.03;100349.69;5043492;28;20434;-71
2021/05/19 08:17:27;;;;;;;20.67;18.50;;;;;;;19.14;43.82;100356.94;5040003;28;20526;-72
2021/05/19 08:19:54;;;;;;;20.20;18.30;;;;;;;20.39;42.74;100345.50;5038151;28;20454;-70
2021/05/19 08:22:20;;;;;;;21.80;19.50;;;;;;;20.03;42.31;100342.00;5040441;28;21006;-71
2021/05/19 08:24:46;;;;;;;19.70;17.80;;;;;;;20.94;41.12;100342.78;5044206;28;20514;-75
2021/05/19 08:27:13;;;;;;;21.80;19.70;;;;;;;20.21;41.95;100344.19;5042626;28;20481;-74
2021/05/19 08:29:40;;;;;;;18.77;16.80;;;;;;;19.00;43.61;100347.84;5044204;28;20492;-77
2021/05/19 08:32:08;;;;;;;20.73;17.73;;;;;;;18.80;43.60;100352.19;5044035;28;20485;-76
2021/05/19 08:34:34;;;;;;;20.90;18.70;;;;;;;18.47;45.68;100347.28;5024111;28;20454;-76
2021/05/19 08:37:02;;;;;;;19.30;17.50;;;;;;;18.19;45.81;100344.41;5042367;28;20483;-71
2021/05/19 08:39:28;;;;;;;20.60;18.40;;;;;;;17.76;47.18;100336.06;5043146;28;21089;-78
2021/05/19 08:41:54;;;;;;;19.90;17.90;;;;;;;17.85;46.30;100337.69;5042883;28;20504;-71
2021/05/19 08:44:20;;;;;;;20.27;18.00;;;;;;;18.40;46.58;100347.19;5044802;28;20472;-78
2021/05/19 08:46:48;;;;;;;19.83;17.70;;;;;;;18.27;44.50;100341.59;5047290;28;20492;-77
2021/05/19 08:49:16;;;;;;;21.03;18.93;;;;;;;18.62;44.96;100334.50;5044851;28;20497;-75
2021/05/19 08:51:42;;;;;;;18.40;16.50;;;;;;;18.58;44.62;100335.94;5043584;28;21021;-71
2021/05/19 08:54:09;;;;;;;17.87;16.17;;;;;;;19.64;42.44;100334.44;5043998;28;20442;-71
2021/05/19 08:56:37;;;;;;;22.23;18.20;;;;;;;20.35;42.38;100328.78;5042362;28;20508;-71
2021/05/19 08:59:04;;;;;;;19.17;17.27;;;;;;;21.11;39.82;100335.03;5043219;28;20483;-68
2021/05/19 09:01:37;;;;;;;19.20;17.20;;;;;;;22.11;38.32;100337.69;5043421;28;20496;-70
2021/05/19 09:04:04;;;;;;;15.93;14.23;;;;;;;21.17;37.99;100332.34;5042587;28;20461;-71
2021/05/19 09:06:32;;;;;;;16.97;15.17;;;;;;;21.88;37.49;100338.19;5041814;28;20477;-72
2021/05/19 09:08:58;;;;;;;18.40;16.60;;;;;;;22.25;38.17;100330.31;5041062;28;20493;-78
2021/05/19 09:11:24;;;;;;;18.37;16.47;;;;;;;22.81;36.88;100337.81;5042390;28;20481;-74
2021/05/19 09:13:50;;;;;;;16.80;15.03;;;;;;;21.00;39.24;100326.47;5042085;28;20461;-73
2021/05/19 09:16:26;;;;;;;14.50;12.00;;;;;;;19.51;41.98;100329.72;5042607;28;20477;-73
2021/05/19 09:18:54;;;;;;;12.70;11.40;;;;;;;20.47;39.39;100331.75;5042570;28;20478;-78
2021/05/19 09:21:36;;;;;;;12.70;11.37;;;;;;;21.99;37.97;100330.19;5040825;28;20488;-76
2021/05/19 09:24:05;;;;;;;13.00;11.60;;;;;;;22.11;37.08;100332.25;5039833;28;20457;-72
2021/05/19 09:26:32;;;;;;;15.60;12.60;;;;;;;20.79;39.63;100335.63;5042525;28;20477;-73
2021/05/19 09:29:20;;;;;;;13.47;11.10;;;;;;;20.60;39.28;100341.81;5042426;28;20556;-71
2021/05/19 09:31:53;;;;;;;11.60;10.10;;;;;;;20.90;39.48;100326.06;5042255;28;20525;-73
2021/05/19 09:34:28;;;;;;;10.27;8.80;;;;;;;20.72;38.78;100332.06;5042109;28;20433;-78
2021/05/19 09:37:13;;;;;;;11.40;8.00;;;;;;;20.69;38.86;100336.03;5034953;28;20487;-73
2021/05/19 09:39:48;;;;;;;11.03;8.73;;;;;;;20.02;38.80;100334.91;5023128;28;20517;-71
2021/05/19 09:42:14;;;;;;;9.03;7.47;;;;;;;20.12;39.38;100335.38;5024190;28;20482;-76
2021/05/19 09:44:41;;;;;;;13.53;9.47;;;;;;;21.49;36.71;100331.72;5042212;28;20484;-72
2021/05/19 09:47:07;;;;;;;10.10;7.20;;;;;;;20.74;38.30;100332.69;5042443;28;20484;-80
2021/05/19 09:49:33;;;;;;;9.50;8.23;;;;;;;20.39;39.13;100334.66;5042104;28;20497;-74
2021/05/19 09:52:11;;;;;;;13.10;7.67;;;;;;;19.44;40.12;100329.66;5042917;28;20553;-76
2021/05/19 09:54:38;;;;;;;9.67;7.60;;;;;;;18.96;41.69;100319.47;5026928;28;20449;-74
2021/05/19 09:57:06;;;;;;;9.00;7.53;;;;;;;18.61;42.33;100329.31;5041513;28;20481;-81
2021/05/19 09:59:32;;;;;;;8.90;8.00;;;;;;;18.14;43.81;100320.63;5042538;28;20628;-74
2021/05/19 10:02:00;;;;;;;9.30;8.17;;;;;;;18.70;42.73;100335.44;5042036;28;20484;-79
2021/05/19 10:04:28;;;;;;;8.80;8.00;;;;;;;18.17;43.85;100322.94;5042046;28;20462;-70
2021/05/19 10:06:56;;;;;;;9.50;8.17;;;;;;;18.87;42.45;100325.22;5041667;28;20474;-69
2021/05/19 10:09:24;;;;;;;10.40;8.70;;;;;;;18.63;42.77;100327.25;5041152;28;20990;-71
2021/05/19 10:11:50;;;;;;;9.57;8.53;;;;;;;18.51;43.28;100332.31;5040869;28;20477;-75
2021/05/19 10:14:17;;;;;;;11.40;9.00;;;;;;;19.04;41.97;100326.63;5042257;28;20454;-71
2021/05/19 10:16:45;;;;;;;10.63;9.00;;;;;;;18.36;43.08;100321.50;5041428;28;20517;-70
2021/05/19 10:19:13;;;;;;;14.10;10.43;;;;;;;18.41;43.79;100329.91;5032465;28;20460;-75
2021/05/19 10:21:40;;;;;;;10.83;9.50;;;;;;;18.33;45.24;100321.03;5040090;28;20469;-72
2021/05/19 10:24:10;;;;;;;11.47;10.03;;;;;;;18.77;43.69;100320.94;5038748;28;20458;-72
2021/05/19 10:27:02;;;;;;;12.37;11.07;;;;;;;19.53;42.57;100316.84;5040543;28;20493;-73
2021/05/19 10:29:53;;;;;;;12.33;10.77;;;;;;;21.03;39.11;100312.47;5040735;28;20986;-73
2021/05/19 10:32:36;;;;;;;11.47;9.40;;;;;;;21.18;38.13;100300.53;5022651;28;20856;-75
2021/05/19 10:35:06;;;;;;;11.70;9.20;;;;;;;19.81;40.20;100305.13;5019745;28;20482;-73
2021/05/19 10:37:47;;;;;;;10.13;9.03;;;;;;;19.34;41.08;100310.22;5038234;28;20491;-73
2021/05/19 10:40:30;;;;;;;8.67;7.87;;;;;;;18.33;40.57;100308.38;5036527;28;20563;-74
2021/05/19 10:43:06;;;;;;;9.93;7.57;;;;;;;17.76;42.68;100307.19;5030733;28;20442;-74
2021/05/19 10:45:48;;;;;;;10.30;7.10;;;;;;;17.72;42.06;100305.03;5037490;28;20548;-73
2021/05/19 10:48:30;;;;;;;8.40;7.60;;;;;;;17.99;43.12;100309.81;5038724;28;20450;-73
2021/05/19 10:51:01;;;;;;;9.30;7.80;;;;;;;18.86;42.26;100301.88;5037074;28;21030;-73
2021/05/19 10:59:13;;;;;;;8.93;8.13;;;;;;;18.66;41.07;100296.22;5040361;28;20445;-80
2021/05/19 11:02:03;;;;;;;9.43;8.63;;;;;;;19.54;40.21;100289.50;5040286;28;20485;-65
2021/05/19 11:04:29;;;;;;;10.80;8.60;;;;;;;19.13;41.23;100287.53;5029115;28;20520;-71
2021/05/19 11:07:08;;;;;;;9.90;9.00;;;;;;;20.11;39.45;100284.00;5039219;28;20498;-69
2021/05/19 11:09:42;;;;;;;9.83;8.83;;;;;;;21.14;37.67;100282.97;5031360;28;20497;-72
2021/05/19 11:15:48;;;;;;;10.17;8.60;;;;;;;20.74;36.72;100274.81;5039637;28;20465;-75
2021/05/19 11:18:21;;;;;;;8.90;7.83;;;;;;;20.54;36.19;100269.31;5043753;28;20477;-80
2021/05/19 11:20:48;;;;;;;11.10;8.53;;;;;;;19.80;37.81;100262.78;5037238;28;20473;-69
2021/05/19 11:23:15;;;;;;;9.70;8.70;;;;;;;19.71;39.14;100271.03;5039921;28;20442;-69
2021/05/19 11:25:41;;;;;;;14.37;11.23;;;;;;;19.52;38.71;100266.34;5040200;28;20472;-70